Time;durP1;ratioP1;P1;durP2;ratioP2;P2;SDS_P1;SDS_P2;PMS_P1;PMS_P2;Temp;Humidity;BMP_temperature;BMP_pressure;BME280_temperature;BME280_humidity;BME280_pressure;Samples;Min_cycle;Max_cycle;Signal;HPM_P1;HPM_P2
2024/04/15 00:00:19;;;;;;;6.28;1.02;;;;;;;;;;5353122;26;20086;-72
2024/04/15 00:02:45;;;;;;;1.65;0.68;;;;;;;;;;5355896;26;20027;-72
2024/04/15 00:05:11;;;;;;;2.30;0.80;;;;;;;;;;5362070;26;20304;-72
2024/04/15 00:07:37;;;;;;;2.97;0.50;;;;;;;;;;5363741;26;20024;-72
2024/04/15 00:10:03;;;;;;;1.30;0.50;;;;;;;;;;5369913;26;20616;-73
2024/04/15 00:12:29;;;;;;;1.27;0.30;;;;;;;;;;5360352;26;20471;-72
2024/04/15 00:14:55;;;;;;;1.30;0.60;;;;;;;;;;5351610;26;20000;-72
2024/04/15 00:17:21;;;;;;;2.08;1.13;;;;;;;;;;5359118;26;20012;-72
2024/04/15 00:19:47;;;;;;;3.38;1.00;;;;;;;;;;5370259;26;20007;-72
2024/04/15 00:22:13;;;;;;;0.52;0.45;;;;;;;;;;5368984;26;20120;-72
2024/04/15 00:24:38;;;;;;;1.73;0.68;;;;;;;;;;5363008;26;20422;-72
2024/04/15 00:27:04;;;;;;;1.80;0.52;;;;;;;;;;5367803;26;20072;-72
2024/04/15 00:29:30;;;;;;;1.70;0.90;;;;;;;;;;5360793;26;20012;-73
2024/04/15 00:31:56;;;;;;;1.70;0.73;;;;;;;;;;5368053;26;20393;-72
2024/04/15 00:34:22;;;;;;;1.80;0.68;;;;;;;;;;5353003;26;20149;-73
2024/04/15 00:36:48;;;;;;;2.55;0.63;;;;;;;;;;5359015;26;20411;-72
2024/04/15 00:39:14;;;;;;;3.15;0.52;;;;;;;;;;5359955;26;20000;-72
2024/04/15 00:41:40;;;;;;;0.50;0.50;;;;;;;;;;5346479;26;20005;-72
2024/04/15 00:44:06;;;;;;;3.17;0.80;;;;;;;;;;5364908;26;20423;-72
2024/04/15 00:46:32;;;;;;;2.35;1.13;;;;;;;;;;5365353;26;20119;-72
2024/04/15 00:48:59;;;;;;;2.42;0.65;;;;;;;;;;5360622;26;20009;-72
2024/04/15 00:51:26;;;;;;;0.98;0.55;;;;;;;;;;5363734;26;20423;-72
2024/04/15 00:53:53;;;;;;;3.75;0.75;;;;;;;;;;5362491;26;20042;-72
2024/04/15 00:56:21;;;;;;;1.88;0.57;;;;;;;;;;5365063;26;20000;-73
2024/04/15 00:58:47;;;;;;;2.22;0.52;;;;;;;;;;5362471;26;20015;-73
2024/04/15 01:01:14;;;;;;;2.47;0.70;;;;;;;;;;5364853;26;20020;-72
2024/04/15 01:03:40;;;;;;;1.50;0.80;;;;;;;;;;5346632;26;20342;-72
2024/04/15 01:06:06;;;;;;;2.17;0.50;;;;;;;;;;5370076;26;20001;-72
2024/04/15 01:08:33;;;;;;;1.77;0.90;;;;;;;;;;5369018;26;20372;-72
2024/04/15 01:10:59;;;;;;;2.10;0.60;;;;;;;;;;5363478;26;20085;-72
2024/04/15 01:13:25;;;;;;;1.80;0.57;;;;;;;;;;5351979;26;20028;-72
2024/04/15 01:15:58;;;;;;;3.38;0.75;;;;;;;;;;5358613;26;20016;-72
2024/04/15 01:18:24;;;;;;;2.67;0.80;;;;;;;;;;5353920;26;20401;-72
2024/04/15 01:20:51;;;;;;;0.57;0.50;;;;;;;;;;5370045;26;20073;-72
2024/04/15 01:23:19;;;;;;;1.02;0.68;;;;;;;;;;5366058;26;20023;-72
2024/04/15 01:25:45;;;;;;;3.15;0.80;;;;;;;;;;5366306;26;20012;-73
2024/04/15 01:28:13;;;;;;;2.03;0.82;;;;;;;;;;5348854;26;20140;-72
2024/04/15 01:30:39;;;;;;;0.90;0.50;;;;;;;;;;5362107;26;20008;-73
2024/04/15 01:33:05;;;;;;;2.50;0.82;;;;;;;;;;5369932;26;20019;-72
2024/04/15 01:35:31;;;;;;;1.92;0.70;;;;;;;;;;5372032;26;20016;-72
2024/04/15 01:37:57;;;;;;;0.60;0.40;;;;;;;;;;5364307;26;20080;-72
2024/04/15 01:40:23;;;;;;;0.95;0.57;;;;;;;;;;5356055;26;20004;-72
2024/04/15 01:42:49;;;;;;;5.03;0.80;;;;;;;;;;5367564;26;20008;-72
2024/04/15 01:45:15;;;;;;;0.40;0.38;;;;;;;;;;5370740;26;20161;-72
2024/04/15 01:47:44;;;;;;;1.52;0.70;;;;;;;;;;5369922;26;20106;-72
2024/04/15 01:50:10;;;;;;;2.83;0.68;;;;;;;;;;5366733;26;20007;-72
2024/04/15 01:52:36;;;;;;;0.80;0.60;;;;;;;;;;5355482;26;20390;-72
2024/04/15 01:55:02;;;;;;;1.48;0.90;;;;;;;;;;5371500;26;20000;-72
2024/04/15 01:57:28;;;;;;;1.08;0.75;;;;;;;;;;5367591;26;20122;-72
2024/04/15 01:59:54;;;;;;;1.13;0.60;;;;;;;;;;5358097;26;20000;-73
2024/04/15 02:02:20;;;;;;;0.47;0.47;;;;;;;;;;5367118;26;20001;-72
2024/04/15 02:04:46;;;;;;;1.70;0.80;;;;;;;;;;5356971;26;20005;-71
2024/04/15 02:07:12;;;;;;;3.83;0.98;;;;;;;;;;5350634;26;20120;-71
2024/04/15 02:09:38;;;;;;;1.98;0.90;;;;;;;;;;5348336;26;20076;-72
2024/04/15 02:12:04;;;;;;;3.08;0.70;;;;;;;;;;5356479;26;20031;-72
2024/04/15 02:14:30;;;;;;;3.05;0.70;;;;;;;;;;5361437;26;20467;-72
2024/04/15 02:16:55;;;;;;;1.15;0.70;;;;;;;;;;5361032;26;20005;-72
2024/04/15 02:19:23;;;;;;;0.93;0.45;;;;;;;;;;5364987;26;20150;-72
2024/04/15 02:21:49;;;;;;;1.52;0.80;;;;;;;;;;5348769;26;20052;-72
2024/04/15 02:24:15;;;;;;;2.10;0.60;;;;;;;;;;5365499;26;20056;-72
2024/04/15 02:26:41;;;;;;;2.30;0.73;;;;;;;;;;5364790;26;20000;-72
2024/04/15 02:29:07;;;;;;;1.25;0.57;;;;;;;;;;5359482;26;20035;-72
2024/04/15 02:31:32;;;;;;;3.03;0.77;;;;;;;;;;5358603;26;20149;-72
2024/04/15 02:33:58;;;;;;;3.20;0.90;;;;;;;;;;5350704;26;20144;-71
2024/04/15 02:36:24;;;;;;;2.25;0.70;;;;;;;;;;5349378;26;20082;-71
2024/04/15 02:38:50;;;;;;;0.85;0.80;;;;;;;;;;5369348;26;20011;-72
2024/04/15 02:41:16;;;;;;;3.03;0.95;;;;;;;;;;5364239;26;20020;-71
2024/04/15 02:43:42;;;;;;;1.92;0.50;;;;;;;;;;5357676;26;20000;-72
2024/04/15 02:46:08;;;;;;;1.20;0.73;;;;;;;;;;5358319;26;20394;-71
2024/04/15 02:48:34;;;;;;;0.88;0.80;;;;;;;;;;5357423;26;20016;-72
2024/04/15 02:51:00;;;;;;;1.95;0.88;;;;;;;;;;5361729;26;20114;-71
2024/04/15 02:53:26;;;;;;;2.30;0.77;;;;;;;;;;5362226;26;20001;-71
2024/04/15 02:55:53;;;;;;;0.60;0.50;;;;;;;;;;5356332;26;20020;-72
2024/04/15 02:58:19;;;;;;;1.98;0.68;;;;;;;;;;5357347;26;20050;-72
2024/04/15 03:00:46;;;;;;;1.88;0.77;;;;;;;;;;5345959;26;20025;-71
2024/04/15 03:03:11;;;;;;;0.70;0.40;;;;;;;;;;5354306;26;20453;-71
2024/04/15 03:05:41;;;;;;;0.70;0.70;;;;;;;;;;5359243;26;20017;-72
2024/04/15 03:08:07;;;;;;;2.42;1.17;;;;;;;;;;5351321;26;20004;-72
2024/04/15 03:10:33;;;;;;;1.95;0.85;;;;;;;;;;5359089;26;20402;-71
2024/04/15 03:12:59;;;;;;;0.70;0.50;;;;;;;;;;5350023;26;20000;-72
2024/04/15 03:15:25;;;;;;;1.52;0.90;;;;;;;;;;5360134;26;20007;-71
2024/04/15 03:17:51;;;;;;;1.63;0.68;;;;;;;;;;5359256;26;20434;-71
2024/04/15 03:20:17;;;;;;;1.40;0.60;;;;;;;;;;5359183;26;20020;-72
2024/04/15 03:22:49;;;;;;;1.13;0.60;;;;;;;;;;5367369;26;20078;-71
2024/04/15 03:25:15;;;;;;;0.90;0.65;;;;;;;;;;5357502;26;20301;-72
2024/04/15 03:27:41;;;;;;;1.65;0.85;;;;;;;;;;5354562;26;20000;-72
2024/04/15 03:30:07;;;;;;;4.38;0.98;;;;;;;;;;5362399;26;20027;-72
2024/04/15 03:32:33;;;;;;;2.00;0.60;;;;;;;;;;5355237;26;20000;-72
2024/04/15 03:34:59;;;;;;;1.08;0.80;;;;;;;;;;5361344;26;20015;-72
2024/04/15 03:37:25;;;;;;;0.55;0.55;;;;;;;;;;5351981;26;20283;-72
2024/04/15 03:39:50;;;;;;;3.00;0.90;;;;;;;;;;5363975;26;20454;-72
2024/04/15 03:42:16;;;;;;;1.48;0.90;;;;;;;;;;5353402;26;20000;-72
2024/04/15 03:44:42;;;;;;;1.13;0.75;;;;;;;;;;5365201;26;20046;-72
2024/04/15 03:47:08;;;;;;;3.47;1.08;;;;;;;;;;5357451;26;20001;-72
2024/04/15 03:49:34;;;;;;;2.00;0.77;;;;;;;;;;5358600;26;20011;-72
2024/04/15 03:52:00;;;;;;;2.45;1.08;;;;;;;;;;5356184;26;19996;-72
2024/04/15 03:54:26;;;;;;;2.92;0.65;;;;;;;;;;5356134;26;20348;-72
2024/04/15 03:56:52;;;;;;;1.33;0.70;;;;;;;;;;5362233;26;20244;-72
2024/04/15 03:59:18;;;;;;;0.75;0.50;;;;;;;;;;5364182;26;19997;-73
2024/04/15 04:01:44;;;;;;;1.80;0.90;;;;;;;;;;5362650;26;20011;-72
2024/04/15 04:04:10;;;;;;;1.05;0.77;;;;;;;;;;5362624;26;20099;-72
2024/04/15 04:06:36;;;;;;;2.20;0.80;;;;;;;;;;5363955;26;20131;-73
2024/04/15 04:09:02;;;;;;;2.40;0.80;;;;;;;;;;5357789;26;20107;-73
2024/04/15 04:11:28;;;;;;;0.80;0.60;;;;;;;;;;5357290;26;20000;-72
2024/04/15 04:13:54;;;;;;;1.80;0.80;;;;;;;;;;5351943;26;20088;-72
2024/04/15 04:16:21;;;;;;;4.47;0.93;;;;;;;;;;5358387;26;20450;-72
2024/04/15 04:18:47;;;;;;;5.63;0.70;;;;;;;;;;5353294;26;20016;-73
2024/04/15 04:21:13;;;;;;;1.55;0.60;;;;;;;;;;5356443;26;20469;-72
2024/04/15 04:23:39;;;;;;;2.25;0.98;;;;;;;;;;5353454;26;20519;-72
2024/04/15 04:26:05;;;;;;;5.80;0.82;;;;;;;;;;5357966;26;19993;-72
2024/04/15 04:28:31;;;;;;;2.47;0.70;;;;;;;;;;5361500;26;20046;-69
2024/04/15 04:31:03;;;;;;;2.92;0.70;;;;;;;;;;5350469;26;20004;-68
2024/04/15 04:33:29;;;;;;;1.27;1.00;;;;;;;;;;5361942;26;20035;-69
2024/04/15 04:35:55;;;;;;;2.55;0.80;;;;;;;;;;5357946;26;20421;-68
2024/04/15 04:38:21;;;;;;;0.95;0.57;;;;;;;;;;5349028;26;20012;-69
2024/04/15 04:40:55;;;;;;;2.30;1.02;;;;;;;;;;5359332;26;19996;-69
2024/04/15 04:43:21;;;;;;;4.70;0.85;;;;;;;;;;5351039;26;20012;-69
2024/04/15 04:45:47;;;;;;;2.05;0.90;;;;;;;;;;5356491;26;20416;-69
2024/04/15 04:48:12;;;;;;;1.35;0.80;;;;;;;;;;5359707;26;20199;-69
2024/04/15 04:50:38;;;;;;;2.08;0.82;;;;;;;;;;5353621;26;20055;-69
2024/04/15 04:53:04;;;;;;;1.60;0.75;;;;;;;;;;5354986;26;19992;-68
2024/04/15 04:55:33;;;;;;;1.05;0.80;;;;;;;;;;5352694;26;20007;-69
2024/04/15 04:57:59;;;;;;;3.58;0.65;;;;;;;;;;5348962;26;20001;-69
2024/04/15 05:00:24;;;;;;;1.95;0.73;;;;;;;;;;5350199;26;20015;-69
2024/04/15 05:02:50;;;;;;;0.68;0.55;;;;;;;;;;5353623;26;20088;-69
2024/04/15 05:05:16;;;;;;;0.60;0.60;;;;;;;;;;5364331;26;20012;-69
2024/04/15 05:07:42;;;;;;;2.17;0.68;;;;;;;;;;5368760;26;20066;-69
2024/04/15 05:10:08;;;;;;;2.28;0.82;;;;;;;;;;5367939;26;20009;-68
2024/04/15 05:12:35;;;;;;;1.27;0.52;;;;;;;;;;5367970;26;20040;-73
2024/04/15 05:15:00;;;;;;;0.47;0.47;;;;;;;;;;5366928;26;20015;-69
2024/04/15 05:17:26;;;;;;;1.58;0.68;;;;;;;;;;5368410;26;20004;-69
2024/04/15 05:19:52;;;;;;;0.70;0.70;;;;;;;;;;5364242;26;20000;-68
2024/04/15 05:22:18;;;;;;;3.08;0.90;;;;;;;;;;5358563;26;20020;-69
2024/04/15 05:24:44;;;;;;;1.65;0.65;;;;;;;;;;5364413;26;20028;-69
2024/04/15 05:27:10;;;;;;;3.33;1.15;;;;;;;;;;5368339;26;20417;-69
2024/04/15 05:29:37;;;;;;;2.13;0.73;;;;;;;;;;5361678;26;20024;-69
2024/04/15 05:32:03;;;;;;;0.77;0.70;;;;;;;;;;5371284;26;20035;-69
2024/04/15 05:34:28;;;;;;;4.32;0.60;;;;;;;;;;5368515;26;20000;-69
2024/04/15 05:36:54;;;;;;;1.17;0.60;;;;;;;;;;5370926;26;20486;-69
2024/04/15 05:39:20;;;;;;;1.75;0.77;;;;;;;;;;5356424;26;19996;-69
2024/04/15 05:41:46;;;;;;;1.38;0.80;;;;;;;;;;5353074;26;20000;-69
2024/04/15 05:44:12;;;;;;;1.13;0.55;;;;;;;;;;5361675;26;20068;-69
2024/04/15 05:46:47;;;;;;;1.15;0.70;;;;;;;;;;5368551;26;20087;-69
2024/04/15 05:49:13;;;;;;;1.83;0.73;;;;;;;;;;5371321;26;20034;-69
2024/04/15 05:51:39;;;;;;;1.98;0.70;;;;;;;;;;5356751;26;20163;-72
2024/04/15 05:54:05;;;;;;;1.25;0.50;;;;;;;;;;5351098;26;20013;-69
2024/04/15 05:56:31;;;;;;;2.58;0.55;;;;;;;;;;5360384;26;20532;-69
2024/04/15 05:58:57;;;;;;;2.47;0.70;;;;;;;;;;5365952;26;19993;-69
2024/04/15 06:01:23;;;;;;;0.95;0.50;;;;;;;;;;5370764;26;20000;-69
2024/04/15 06:03:49;;;;;;;0.98;0.88;;;;;;;;;;5368892;26;20010;-68
2024/04/15 06:06:15;;;;;;;1.70;0.88;;;;;;;;;;5369346;26;20000;-69
2024/04/15 06:08:40;;;;;;;2.47;0.70;;;;;;;;;;5371618;26;20000;-69
2024/04/15 06:11:06;;;;;;;1.17;0.70;;;;;;;;;;5369076;26;20000;-69
2024/04/15 06:13:32;;;;;;;1.55;0.57;;;;;;;;;;5361791;26;20399;-69
2024/04/15 06:15:58;;;;;;;1.13;0.57;;;;;;;;;;5361324;26;20038;-69
2024/04/15 06:18:24;;;;;;;1.88;1.20;;;;;;;;;;5374337;26;20000;-69
2024/04/15 06:20:50;;;;;;;1.08;0.70;;;;;;;;;;5360130;26;20000;-68
2024/04/15 06:23:16;;;;;;;2.40;1.00;;;;;;;;;;5363748;26;20036;-69
2024/04/15 06:25:42;;;;;;;3.58;0.68;;;;;;;;;;5354363;26;20017;-69
2024/04/15 06:28:08;;;;;;;1.20;0.55;;;;;;;;;;5360550;26;20489;-68
2024/04/15 06:30:34;;;;;;;1.63;0.82;;;;;;;;;;5360060;26;20402;-69
2024/04/15 06:32:59;;;;;;;5.20;0.85;;;;;;;;;;5353309;26;20012;-67
2024/04/15 06:35:25;;;;;;;4.32;1.15;;;;;;;;;;5365191;26;20294;-68
2024/04/15 06:37:51;;;;;;;1.00;0.50;;;;;;;;;;5360570;26;20010;-69
2024/04/15 06:40:17;;;;;;;2.83;0.50;;;;;;;;;;5352266;26;20390;-68
2024/04/15 06:42:43;;;;;;;5.20;1.05;;;;;;;;;;5349899;26;20008;-69
2024/04/15 06:45:09;;;;;;;1.38;0.93;;;;;;;;;;5363953;26;20004;-68
2024/04/15 06:47:35;;;;;;;0.60;0.43;;;;;;;;;;5361792;26;20021;-68
2024/04/15 06:50:01;;;;;;;3.67;0.75;;;;;;;;;;5354484;26;20028;-68
2024/04/15 06:52:27;;;;;;;0.65;0.50;;;;;;;;;;5355411;26;20008;-68
2024/04/15 06:54:53;;;;;;;1.38;0.65;;;;;;;;;;5357364;26;20000;-68
2024/04/15 06:57:19;;;;;;;1.33;0.60;;;;;;;;;;5348146;26;20435;-68
2024/04/15 06:59:44;;;;;;;1.50;0.70;;;;;;;;;;5356512;26;20078;-68
2024/04/15 07:02:13;;;;;;;2.55;0.77;;;;;;;;;;5358274;26;20001;-68
2024/04/15 07:04:39;;;;;;;2.47;0.60;;;;;;;;;;5358234;26;20004;-68
2024/04/15 07:07:05;;;;;;;2.75;0.63;;;;;;;;;;5358703;26;20075;-68
2024/04/15 07:09:30;;;;;;;0.95;0.70;;;;;;;;;;5355347;26;20390;-69
2024/04/15 07:11:56;;;;;;;2.42;0.80;;;;;;;;;;5345763;26;20005;-68
2024/04/15 07:14:22;;;;;;;1.10;0.60;;;;;;;;;;5346976;26;20011;-68
2024/04/15 07:16:48;;;;;;;0.77;0.60;;;;;;;;;;5360052;26;20036;-68
2024/04/15 07:19:14;;;;;;;1.33;0.57;;;;;;;;;;5353852;26;20008;-68
2024/04/15 07:21:40;;;;;;;4.10;0.90;;;;;;;;;;5357608;26;20026;-68
2024/04/15 07:24:06;;;;;;;3.25;0.73;;;;;;;;;;5363890;26;20429;-68
2024/04/15 07:26:32;;;;;;;2.08;1.50;;;;;;;;;;5346345;26;20076;-68
2024/04/15 07:28:59;;;;;;;1.98;0.90;;;;;;;;;;5366123;26;20423;-68
2024/04/15 07:31:25;;;;;;;3.60;1.15;;;;;;;;;;5352179;26;20036;-68
2024/04/15 07:33:51;;;;;;;1.50;0.82;;;;;;;;;;5352743;26;20312;-68
2024/04/15 07:36:17;;;;;;;1.23;0.68;;;;;;;;;;5312108;26;20131;-68
2024/04/15 07:38:43;;;;;;;1.48;0.73;;;;;;;;;;5364727;26;20008;-68
2024/04/15 07:41:08;;;;;;;1.80;0.95;;;;;;;;;;5355951;26;21174;-68
2024/04/15 07:43:34;;;;;;;2.08;1.23;;;;;;;;;;5356787;26;20008;-68
2024/04/15 07:46:00;;;;;;;3.45;1.15;;;;;;;;;;5359109;26;20000;-68
2024/04/15 07:48:26;;;;;;;2.78;1.25;;;;;;;;;;5367302;26;20151;-68
2024/04/15 07:50:52;;;;;;;4.45;1.52;;;;;;;;;;5368195;26;20086;-68
2024/04/15 07:53:18;;;;;;;1.67;1.38;;;;;;;;;;5360461;26;20015;-68
2024/04/15 07:55:45;;;;;;;3.88;1.55;;;;;;;;;;5366774;26;20004;-68
2024/04/15 07:58:11;;;;;;;2.25;1.02;;;;;;;;;;5348199;26;20088;-68
2024/04/15 08:00:37;;;;;;;2.25;1.17;;;;;;;;;;5362234;26;20071;-68
2024/04/15 08:03:03;;;;;;;1.90;1.20;;;;;;;;;;5369348;26;20405;-68
2024/04/15 08:05:29;;;;;;;2.30;1.30;;;;;;;;;;5346945;26;20398;-68
2024/04/15 08:07:55;;;;;;;2.22;1.15;;;;;;;;;;5360275;26;19996;-68
2024/04/15 08:10:21;;;;;;;2.03;1.02;;;;;;;;;;5365367;26;20016;-68
2024/04/15 08:12:47;;;;;;;3.08;1.10;;;;;;;;;;5350521;26;20075;-68
2024/04/15 08:15:13;;;;;;;3.67;1.40;;;;;;;;;;5359280;26;20079;-68
2024/04/15 08:17:40;;;;;;;2.45;1.42;;;;;;;;;;5367865;26;20040;-68
2024/04/15 08:20:07;;;;;;;1.80;1.25;;;;;;;;;;5369840;26;20004;-68
2024/04/15 08:22:33;;;;;;;3.72;1.10;;;;;;;;;;5362605;26;20422;-68
2024/04/15 08:24:59;;;;;;;2.72;1.20;;;;;;;;;;5361661;26;20020;-68
2024/04/15 08:27:25;;;;;;;2.38;1.08;;;;;;;;;;5357555;26;20126;-68
2024/04/15 08:29:52;;;;;;;2.05;0.93;;;;;;;;;;5359081;26;20001;-68
2024/04/15 08:32:17;;;;;;;2.88;1.13;;;;;;;;;;5358039;26;20001;-68
2024/04/15 08:34:43;;;;;;;2.08;1.17;;;;;;;;;;5365212;26;20004;-68
2024/04/15 08:37:09;;;;;;;2.97;1.48;;;;;;;;;;5335414;26;20056;-68
2024/04/15 08:39:37;;;;;;;3.65;1.05;;;;;;;;;;5346789;26;20340;-68
2024/04/15 08:42:05;;;;;;;1.50;0.80;;;;;;;;;;5360841;26;20011;-67
2024/04/15 08:44:32;;;;;;;2.10;0.90;;;;;;;;;;5364076;26;20081;-66
2024/04/15 08:47:00;;;;;;;1.98;0.88;;;;;;;;;;5354529;26;20025;-67
2024/04/15 08:49:26;;;;;;;2.20;1.02;;;;;;;;;;5361571;26;20299;-66
2024/04/15 08:51:52;;;;;;;2.15;1.02;;;;;;;;;;5359516;26;20086;-67
2024/04/15 08:54:18;;;;;;;2.53;0.90;;;;;;;;;;5368137;26;20000;-67
2024/04/15 08:56:47;;;;;;;2.20;0.88;;;;;;;;;;5349783;26;20001;-66
2024/04/15 08:59:16;;;;;;;2.03;1.08;;;;;;;;;;5364838;26;20012;-67
2024/04/15 09:01:43;;;;;;;3.03;0.60;;;;;;;;;;5353192;26;19997;-68
2024/04/15 09:04:10;;;;;;;2.47;0.75;;;;;;;;;;5352207;26;20004;-68
2024/04/15 09:06:36;;;;;;;1.80;0.90;;;;;;;;;;5365636;26;20197;-68
2024/04/15 09:09:02;;;;;;;2.22;0.80;;;;;;;;;;5356699;26;19996;-68
2024/04/15 09:11:33;;;;;;;3.28;0.95;;;;;;;;;;5364421;26;20028;-68
2024/04/15 09:13:59;;;;;;;2.00;0.70;;;;;;;;;;5354579;26;20414;-68
2024/04/15 09:16:25;;;;;;;1.33;0.80;;;;;;;;;;5350870;26;20001;-68
2024/04/15 09:18:51;;;;;;;1.30;0.60;;;;;;;;;;5360143;26;20027;-68
2024/04/15 09:21:20;;;;;;;2.60;0.70;;;;;;;;;;5364377;26;20150;-68
2024/04/15 09:23:46;;;;;;;1.48;0.50;;;;;;;;;;5364212;26;20007;-68
2024/04/15 09:26:12;;;;;;;2.08;0.70;;;;;;;;;;5360852;26;20314;-68
2024/04/15 09:28:38;;;;;;;2.00;0.75;;;;;;;;;;5354112;26;20000;-69
2024/04/15 09:31:04;;;;;;;0.75;0.47;;;;;;;;;;5363711;26;20015;-68
2024/04/15 09:33:30;;;;;;;1.90;0.80;;;;;;;;;;5366327;26;20025;-69
2024/04/15 09:35:56;;;;;;;1.20;0.60;;;;;;;;;;5334012;26;20000;-68
2024/04/15 09:38:24;;;;;;;3.95;0.77;;;;;;;;;;5328344;26;20001;-68
2024/04/15 09:40:50;;;;;;;1.73;1.00;;;;;;;;;;5314560;26;20459;-68
2024/04/15 09:43:16;;;;;;;1.02;0.70;;;;;;;;;;5329245;26;20015;-68
2024/04/15 09:45:42;;;;;;;1.70;0.70;;;;;;;;;;5327839;26;20386;-68
2024/04/15 09:48:12;;;;;;;2.65;0.93;;;;;;;;;;5328086;26;20033;-68
2024/04/15 09:50:39;;;;;;;0.93;0.57;;;;;;;;;;5323872;26;20464;-68
2024/04/15 09:53:06;;;;;;;2.97;0.80;;;;;;;;;;5319907;26;20012;-68
2024/04/15 09:55:43;;;;;;;3.50;0.80;;;;;;;;;;5313561;26;20121;-68
2024/04/15 09:58:10;;;;;;;2.42;0.95;;;;;;;;;;5333179;26;20012;-68
2024/04/15 10:00:38;;;;;;;2.75;1.20;;;;;;;;;;5327019;26;20340;-68
2024/04/15 10:03:08;;;;;;;2.50;0.85;;;;;;;;;;5328724;26;20001;-68
2024/04/15 10:05:42;;;;;;;0.98;0.60;;;;;;;;;;5329859;26;20012;-69
2024/04/15 10:08:08;;;;;;;3.03;1.17;;;;;;;;;;5322769;26;20017;-68
2024/04/15 10:10:35;;;;;;;1.13;0.80;;;;;;;;;;5324347;26;20475;-69
2024/04/15 10:13:03;;;;;;;1.95;0.70;;;;;;;;;;5321127;26;20330;-69
2024/04/15 10:15:29;;;;;;;2.35;1.20;;;;;;;;;;5338849;26;20001;-68
2024/04/15 10:18:09;;;;;;;2.40;0.88;;;;;;;;;;5337084;26;20189;-68
2024/04/15 10:20:36;;;;;;;4.38;1.00;;;;;;;;;;5339068;26;20006;-68
2024/04/15 10:23:09;;;;;;;2.38;1.05;;;;;;;;;;5333062;26;20017;-68
2024/04/15 10:25:35;;;;;;;1.60;0.80;;;;;;;;;;5330096;26;20131;-69
2024/04/15 10:28:02;;;;;;;1.45;0.90;;;;;;;;;;5317198;26;20016;-68
2024/04/15 10:30:29;;;;;;;3.50;0.82;;;;;;;;;;5342470;26;20422;-68
2024/04/15 10:32:57;;;;;;;1.75;0.82;;;;;;;;;;5319174;26;19997;-68
2024/04/15 10:35:23;;;;;;;1.90;0.85;;;;;;;;;;5329643;26;19994;-69
2024/04/15 10:37:53;;;;;;;2.42;1.00;;;;;;;;;;5346729;26;20040;-69
2024/04/15 10:40:40;;;;;;;2.35;0.93;;;;;;;;;;5372965;26;20024;-68
2024/04/15 10:43:06;;;;;;;2.13;0.90;;;;;;;;;;5357997;26;20039;-68
2024/04/15 10:45:33;;;;;;;2.72;1.20;;;;;;;;;;5364160;26;20080;-69
2024/04/15 10:47:59;;;;;;;1.38;0.82;;;;;;;;;;5369303;26;20000;-69
2024/04/15 10:50:25;;;;;;;2.10;0.73;;;;;;;;;;5384313;26;20005;-68
2024/04/15 10:52:51;;;;;;;3.83;1.35;;;;;;;;;;5368610;26;20349;-69
2024/04/15 10:55:17;;;;;;;1.23;0.85;;;;;;;;;;5370696;26;20000;-68
2024/04/15 10:57:45;;;;;;;1.42;0.98;;;;;;;;;;5367524;26;20000;-68
2024/04/15 11:00:12;;;;;;;2.90;1.25;;;;;;;;;;5374781;26;20004;-68
2024/04/15 11:02:45;;;;;;;2.28;1.10;;;;;;;;;;5368432;26;20001;-68
2024/04/15 11:05:12;;;;;;;1.38;0.90;;;;;;;;;;5361595;26;20496;-68
2024/04/15 11:07:39;;;;;;;2.72;1.10;;;;;;;;;;5368893;26;20365;-68
2024/04/15 11:10:05;;;;;;;1.65;1.17;;;;;;;;;;5369138;26;20000;-69
2024/04/15 11:12:31;;;;;;;5.43;1.15;;;;;;;;;;5355929;26;20416;-68
2024/04/15 11:14:57;;;;;;;1.02;0.90;;;;;;;;;;5363697;26;20008;-68
2024/04/15 11:17:23;;;;;;;3.28;1.23;;;;;;;;;;5358836;26;20082;-68
2024/04/15 11:20:09;;;;;;;2.42;1.30;;;;;;;;;;5355866;26;20118;-68
2024/04/15 11:22:36;;;;;;;4.07;1.00;;;;;;;;;;5367422;26;20105;-68
2024/04/15 11:25:02;;;;;;;2.85;1.10;;;;;;;;;;5366666;26;20576;-69
2024/04/15 11:27:30;;;;;;;2.75;0.98;;;;;;;;;;5364003;26;20003;-68
2024/04/15 11:29:57;;;;;;;3.10;1.02;;;;;;;;;;5363477;26;20099;-68
2024/04/15 11:32:24;;;;;;;3.35;1.27;;;;;;;;;;5372448;26;20419;-68
2024/04/15 11:34:50;;;;;;;3.05;1.10;;;;;;;;;;5360411;26;20334;-68
2024/04/15 11:37:17;;;;;;;3.33;1.23;;;;;;;;;;5364809;26;20000;-68
2024/04/15 11:39:43;;;;;;;4.00;1.30;;;;;;;;;;5368043;26;20012;-67
2024/04/15 11:42:09;;;;;;;2.85;1.30;;;;;;;;;;5364029;26;20325;-68
2024/04/15 11:44:36;;;;;;;3.55;1.40;;;;;;;;;;5368090;26;20011;-68
2024/04/15 11:47:02;;;;;;;2.45;1.23;;;;;;;;;;5367334;26;20004;-69
2024/04/15 11:49:27;;;;;;;4.07;1.60;;;;;;;;;;5371629;26;20026;-69
2024/04/15 11:51:54;;;;;;;3.97;1.20;;;;;;;;;;5359843;26;20008;-69
2024/04/15 11:54:20;;;;;;;4.30;1.58;;;;;;;;;;5358789;26;20079;-69
2024/04/15 11:56:46;;;;;;;2.97;1.55;;;;;;;;;;5374480;26;20034;-69
2024/04/15 11:59:12;;;;;;;3.30;1.63;;;;;;;;;;5368590;26;20039;-69
2024/04/15 12:01:38;;;;;;;2.78;1.70;;;;;;;;;;5363624;26;20102;-68
2024/04/15 12:04:04;;;;;;;4.03;1.95;;;;;;;;;;5369552;26;20012;-69
2024/04/15 12:06:29;;;;;;;4.00;1.42;;;;;;;;;;5366583;26;20231;-69
2024/04/15 12:08:55;;;;;;;3.20;1.58;;;;;;;;;;5358321;26;20000;-69
2024/04/15 12:11:22;;;;;;;3.45;1.60;;;;;;;;;;5360633;26;20048;-69
2024/04/15 12:13:48;;;;;;;5.53;1.75;;;;;;;;;;5360647;26;20171;-69
2024/04/15 12:16:14;;;;;;;4.05;1.77;;;;;;;;;;5367684;26;20011;-69
2024/04/15 12:18:40;;;;;;;4.05;1.85;;;;;;;;;;5358327;26;20330;-69
2024/04/15 12:21:06;;;;;;;5.22;2.00;;;;;;;;;;5363042;26;20043;-69
2024/04/15 12:23:32;;;;;;;4.13;1.90;;;;;;;;;;5376621;26;20011;-68
2024/04/15 12:25:59;;;;;;;2.90;1.25;;;;;;;;;;5374014;26;20122;-68
2024/04/15 12:28:25;;;;;;;5.70;2.20;;;;;;;;;;5344752;26;20432;-68
2024/04/15 12:30:50;;;;;;;3.92;1.98;;;;;;;;;;5350068;26;20043;-68
2024/04/15 12:33:16;;;;;;;3.72;1.52;;;;;;;;;;5354634;26;20001;-68
2024/04/15 12:35:45;;;;;;;4.15;1.88;;;;;;;;;;5364299;26;20000;-69
2024/04/15 12:38:11;;;;;;;4.38;1.98;;;;;;;;;;5349341;26;19996;-69
2024/04/15 12:40:37;;;;;;;3.40;1.80;;;;;;;;;;5350651;26;20014;-69
2024/04/15 12:43:06;;;;;;;3.38;1.52;;;;;;;;;;5365377;26;20015;-69
2024/04/15 12:45:32;;;;;;;3.65;1.65;;;;;;;;;;5366701;26;20012;-69
2024/04/15 12:47:58;;;;;;;3.83;1.90;;;;;;;;;;5371624;26;20151;-69
2024/04/15 12:50:24;;;;;;;2.25;1.30;;;;;;;;;;5365636;26;20436;-68
2024/04/15 12:52:50;;;;;;;3.95;1.60;;;;;;;;;;5369001;26;20200;-68
2024/04/15 12:55:15;;;;;;;2.30;1.42;;;;;;;;;;5368343;26;20000;-68
2024/04/15 12:57:41;;;;;;;4.10;2.15;;;;;;;;;;5360502;26;20008;-68
2024/04/15 13:00:09;;;;;;;2.92;1.88;;;;;;;;;;5367606;26;20306;-68
2024/04/15 13:02:38;;;;;;;4.03;1.95;;;;;;;;;;5368257;26;20069;-68
2024/04/15 13:05:07;;;;;;;3.53;1.80;;;;;;;;;;5360495;26;20343;-69
2024/04/15 13:07:33;;;;;;;3.17;1.80;;;;;;;;;;5368101;26;20019;-69
2024/04/15 13:09:59;;;;;;;5.60;1.63;;;;;;;;;;5369104;26;20005;-68
2024/04/15 13:12:25;;;;;;;4.82;1.80;;;;;;;;;;5366865;26;20347;-68
2024/04/15 13:14:51;;;;;;;2.50;1.60;;;;;;;;;;5360870;26;20017;-69
2024/04/15 13:17:17;;;;;;;4.25;2.22;;;;;;;;;;5370569;26;20008;-68
2024/04/15 13:19:43;;;;;;;3.70;1.90;;;;;;;;;;5364784;26;20001;-68
2024/04/15 13:22:09;;;;;;;3.50;1.80;;;;;;;;;;5348792;26;20127;-68
2024/04/15 13:24:35;;;;;;;4.88;2.67;;;;;;;;;;5374540;26;20015;-68
2024/04/15 13:27:01;;;;;;;4.70;2.33;;;;;;;;;;5370079;26;20015;-69
2024/04/15 13:29:27;;;;;;;3.75;2.25;;;;;;;;;;5365964;26;20028;-68
2024/04/15 13:31:53;;;;;;;5.07;2.65;;;;;;;;;;5373918;26;20004;-68
2024/04/15 13:34:19;;;;;;;3.42;1.90;;;;;;;;;;5373243;26;20417;-68
2024/04/15 13:36:45;;;;;;;3.67;2.30;;;;;;;;;;5371388;26;20054;-68
2024/04/15 13:39:11;;;;;;;6.07;2.17;;;;;;;;;;5363811;26;20415;-68
2024/04/15 13:41:37;;;;;;;6.95;2.35;;;;;;;;;;5351802;26;20041;-68
2024/04/15 13:44:03;;;;;;;4.90;2.17;;;;;;;;;;5370362;26;20003;-68
2024/04/15 13:46:28;;;;;;;5.55;2.22;;;;;;;;;;5372504;26;20000;-68
2024/04/15 13:48:54;;;;;;;5.38;2.28;;;;;;;;;;5373414;26;20051;-68
2024/04/15 13:51:20;;;;;;;4.90;2.13;;;;;;;;;;5373803;26;20505;-68
2024/04/15 13:53:46;;;;;;;4.35;2.65;;;;;;;;;;5367464;26;20117;-69
2024/04/15 13:56:12;;;;;;;4.28;2.67;;;;;;;;;;5362851;26;20020;-68
2024/04/15 13:58:39;;;;;;;5.03;2.83;;;;;;;;;;5366750;26;20048;-68
2024/04/15 14:01:05;;;;;;;5.53;2.70;;;;;;;;;;5359677;26;20120;-68
2024/04/15 14:03:31;;;;;;;2.83;2.17;;;;;;;;;;5373367;26;19996;-69
2024/04/15 14:05:57;;;;;;;4.47;2.17;;;;;;;;;;5364756;26;20290;-68
2024/04/15 14:08:23;;;;;;;3.25;2.10;;;;;;;;;;5370553;26;20020;-69
2024/04/15 14:10:49;;;;;;;3.40;1.83;;;;;;;;;;5367797;26;20375;-69
2024/04/15 14:13:15;;;;;;;3.35;1.70;;;;;;;;;;5366214;26;20016;-69
2024/04/15 14:15:41;;;;;;;7.60;1.83;;;;;;;;;;5362767;26;20027;-69
2024/04/15 14:18:07;;;;;;;5.85;2.28;;;;;;;;;;5371271;26;20393;-69
2024/04/15 14:20:33;;;;;;;2.55;1.88;;;;;;;;;;5372661;26;20107;-69
2024/04/15 14:22:59;;;;;;;2.42;1.65;;;;;;;;;;5355093;26;20054;-69
2024/04/15 14:25:25;;;;;;;3.42;2.03;;;;;;;;;;5379883;26;20077;-69
2024/04/15 14:27:51;;;;;;;2.22;1.50;;;;;;;;;;5369539;26;20004;-69
2024/04/15 14:30:17;;;;;;;2.65;1.77;;;;;;;;;;5368954;26;19996;-68
2024/04/15 14:32:43;;;;;;;2.30;1.65;;;;;;;;;;5371048;26;20419;-68
2024/04/15 14:35:09;;;;;;;2.10;1.30;;;;;;;;;;5371467;26;20282;-68
2024/04/15 14:37:38;;;;;;;3.35;1.70;;;;;;;;;;5369655;26;20397;-68